LEJR/XRY METAR and TAF weather

Enter ICAO airport designator
Station Type Date Time Source
LEJR METAR 2020/09/22 01:00 UTC NOAA

LEJR 220100Z AUTO 00000KT CAVOK 18/16 Q1016


Station Type Date Time Source
LEJR Decoded METAR 2020/09/22 01:00 UTC NOAA

Jerez De La Fronteraaeropuerto, Spain (LEJR) 36-45N 006-04W 28M
Sep 21, 2020 - 09:00 PM EDT / 2020.09.22 0100 UTC
Wind: Calm:0
Visibility: greater than 7 mile(s):0
Temperature: 64 F (18 C)
Dew Point: 60 F (16 C)
Relative Humidity: 88%
Pressure (altimeter): 30.00 in. Hg (1016 hPa)
ob: LEJR 220100Z AUTO 00000KT CAVOK 18/16 Q1016
cycle: 1

Station Type Date Time Source
LEJR TAF 2020/09/21 18:27 UTC NOAA

TAF LEJR 211700Z 2118/2218 29010KT CAVOK TX30/2215Z TN16/2206Z
BECMG 2120/2123 36005KT
BECMG 2212/2214 27010KT

Example: see airport list